sensor_id;sensor_type;location;lat;lon;timestamp;P1;durP1;ratioP1;P2;durP2;ratioP2
21472;SDS011;10898;48.072;11.682;2022-08-19T00:01:23;7.13;;;6.00;;
21472;SDS011;10898;48.072;11.682;2022-08-19T00:03:30;6.50;;;5.90;;
21472;SDS011;10898;48.072;11.682;2022-08-19T00:05:32;6.70;;;6.10;;
21472;SDS011;10898;48.072;11.682;2022-08-19T00:07:34;5.50;;;5.00;;
21472;SDS011;10898;48.072;11.682;2022-08-19T00:09:36;5.55;;;5.07;;
21472;SDS011;10898;48.072;11.682;2022-08-19T00:11:38;7.28;;;5.35;;
21472;SDS011;10898;48.072;11.682;2022-08-19T00:13:40;5.55;;;5.05;;
21472;SDS011;10898;48.072;11.682;2022-08-19T00:15:42;5.05;;;4.65;;
21472;SDS011;10898;48.072;11.682;2022-08-19T00:17:45;5.28;;;4.78;;
21472;SDS011;10898;48.072;11.682;2022-08-19T00:19:48;6.55;;;4.82;;
21472;SDS011;10898;48.072;11.682;2022-08-19T00:21:50;5.57;;;4.97;;
21472;SDS011;10898;48.072;11.682;2022-08-19T00:23:53;4.68;;;4.28;;
21472;SDS011;10898;48.072;11.682;2022-08-19T00:25:55;4.55;;;4.15;;
21472;SDS011;10898;48.072;11.682;2022-08-19T00:27:57;4.50;;;4.13;;
21472;SDS011;10898;48.072;11.682;2022-08-19T00:30:00;4.95;;;4.30;;
21472;SDS011;10898;48.072;11.682;2022-08-19T00:32:05;5.28;;;4.78;;
21472;SDS011;10898;48.072;11.682;2022-08-19T00:34:11;4.57;;;4.25;;
21472;SDS011;10898;48.072;11.682;2022-08-19T00:36:14;4.10;;;3.70;;
21472;SDS011;10898;48.072;11.682;2022-08-19T00:38:16;5.47;;;4.97;;
21472;SDS011;10898;48.072;11.682;2022-08-19T00:40:37;5.20;;;4.68;;
21472;SDS011;10898;48.072;11.682;2022-08-19T00:42:39;5.57;;;5.03;;
21472;SDS011;10898;48.072;11.682;2022-08-19T00:44:41;4.93;;;4.53;;
21472;SDS011;10898;48.072;11.682;2022-08-19T00:48:59;5.53;;;4.88;;
21472;SDS011;10898;48.072;11.682;2022-08-19T00:51:04;5.18;;;4.68;;
21472;SDS011;10898;48.072;11.682;2022-08-19T00:53:06;5.25;;;4.75;;
21472;SDS011;10898;48.072;11.682;2022-08-19T00:55:09;5.70;;;5.20;;
21472;SDS011;10898;48.072;11.682;2022-08-19T00:57:14;5.53;;;5.00;;
21472;SDS011;10898;48.072;11.682;2022-08-19T00:59:19;5.38;;;4.88;;
21472;SDS011;10898;48.072;11.682;2022-08-19T01:01:42;4.90;;;4.40;;
21472;SDS011;10898;48.072;11.682;2022-08-19T01:03:45;5.40;;;4.80;;
21472;SDS011;10898;48.072;11.682;2022-08-19T01:05:58;5.50;;;5.00;;
21472;SDS011;10898;48.072;11.682;2022-08-19T01:08:01;5.60;;;5.10;;
21472;SDS011;10898;48.072;11.682;2022-08-19T01:10:06;5.60;;;5.07;;
21472;SDS011;10898;48.072;11.682;2022-08-19T01:12:11;5.55;;;5.05;;
21472;SDS011;10898;48.072;11.682;2022-08-19T01:14:13;5.80;;;5.20;;
21472;SDS011;10898;48.072;11.682;2022-08-19T01:16:18;6.07;;;5.57;;
21472;SDS011;10898;48.072;11.682;2022-08-19T01:18:22;6.25;;;5.40;;
21472;SDS011;10898;48.072;11.682;2022-08-19T01:20:25;5.85;;;5.03;;
21472;SDS011;10898;48.072;11.682;2022-08-19T01:22:30;6.28;;;5.68;;
21472;SDS011;10898;48.072;11.682;2022-08-19T01:24:34;5.65;;;5.15;;
21472;SDS011;10898;48.072;11.682;2022-08-19T01:26:46;5.70;;;5.22;;
21472;SDS011;10898;48.072;11.682;2022-08-19T01:28:53;5.97;;;5.40;;
21472;SDS011;10898;48.072;11.682;2022-08-19T01:31:00;4.65;;;4.20;;
21472;SDS011;10898;48.072;11.682;2022-08-19T01:33:08;4.93;;;4.47;;
21472;SDS011;10898;48.072;11.682;2022-08-19T01:35:10;4.60;;;4.20;;
21472;SDS011;10898;48.072;11.682;2022-08-19T01:37:14;4.80;;;3.92;;
21472;SDS011;10898;48.072;11.682;2022-08-19T01:39:27;5.22;;;4.18;;
21472;SDS011;10898;48.072;11.682;2022-08-19T01:41:29;4.68;;;4.05;;
21472;SDS011;10898;48.072;11.682;2022-08-19T01:43:31;4.77;;;4.37;;
21472;SDS011;10898;48.072;11.682;2022-08-19T01:47:36;4.68;;;4.28;;
21472;SDS011;10898;48.072;11.682;2022-08-19T01:49:39;4.70;;;4.30;;
21472;SDS011;10898;48.072;11.682;2022-08-19T01:51:41;5.07;;;4.65;;
21472;SDS011;10898;48.072;11.682;2022-08-19T01:53:46;4.93;;;4.53;;
21472;SDS011;10898;48.072;11.682;2022-08-19T01:55:49;5.75;;;5.25;;
21472;SDS011;10898;48.072;11.682;2022-08-19T01:57:52;5.20;;;4.70;;
21472;SDS011;10898;48.072;11.682;2022-08-19T01:59:58;4.75;;;4.20;;
21472;SDS011;10898;48.072;11.682;2022-08-19T02:02:02;4.88;;;4.47;;
21472;SDS011;10898;48.072;11.682;2022-08-19T02:04:08;4.57;;;4.18;;
21472;SDS011;10898;48.072;11.682;2022-08-19T02:06:10;5.13;;;4.63;;
21472;SDS011;10898;48.072;11.682;2022-08-19T02:08:12;5.28;;;4.78;;
21472;SDS011;10898;48.072;11.682;2022-08-19T02:10:16;4.55;;;4.15;;
21472;SDS011;10898;48.072;11.682;2022-08-19T02:12:21;4.18;;;3.85;;
21472;SDS011;10898;48.072;11.682;2022-08-19T02:14:23;4.35;;;3.95;;
21472;SDS011;10898;48.072;11.682;2022-08-19T02:16:25;5.15;;;4.65;;
21472;SDS011;10898;48.072;11.682;2022-08-19T02:18:27;5.40;;;4.40;;
21472;SDS011;10898;48.072;11.682;2022-08-19T02:20:29;4.17;;;3.87;;
21472;SDS011;10898;48.072;11.682;2022-08-19T02:22:31;4.07;;;3.78;;
21472;SDS011;10898;48.072;11.682;2022-08-19T02:24:32;4.30;;;4.00;;
21472;SDS011;10898;48.072;11.682;2022-08-19T02:26:35;3.72;;;3.42;;
21472;SDS011;10898;48.072;11.682;2022-08-19T02:28:37;3.92;;;3.53;;
21472;SDS011;10898;48.072;11.682;2022-08-19T02:30:40;4.55;;;4.15;;
21472;SDS011;10898;48.072;11.682;2022-08-19T02:32:42;4.07;;;3.78;;
21472;SDS011;10898;48.072;11.682;2022-08-19T02:34:46;4.50;;;4.18;;
21472;SDS011;10898;48.072;11.682;2022-08-19T02:36:48;4.57;;;4.18;;
21472;SDS011;10898;48.072;11.682;2022-08-19T02:38:52;5.20;;;4.70;;
21472;SDS011;10898;48.072;11.682;2022-08-19T02:41:00;4.72;;;4.32;;
21472;SDS011;10898;48.072;11.682;2022-08-19T02:43:06;5.10;;;4.60;;
21472;SDS011;10898;48.072;11.682;2022-08-19T02:45:09;4.57;;;4.18;;
21472;SDS011;10898;48.072;11.682;2022-08-19T02:47:11;4.13;;;3.83;;
21472;SDS011;10898;48.072;11.682;2022-08-19T02:49:15;4.03;;;3.72;;
21472;SDS011;10898;48.072;11.682;2022-08-19T02:51:21;4.05;;;3.70;;
21472;SDS011;10898;48.072;11.682;2022-08-19T02:53:27;4.60;;;4.20;;
21472;SDS011;10898;48.072;11.682;2022-08-19T02:55:29;5.50;;;4.75;;
21472;SDS011;10898;48.072;11.682;2022-08-19T02:57:46;4.55;;;3.70;;
21472;SDS011;10898;48.072;11.682;2022-08-19T02:59:48;4.55;;;4.25;;
21472;SDS011;10898;48.072;11.682;2022-08-19T03:01:50;4.20;;;3.80;;
21472;SDS011;10898;48.072;11.682;2022-08-19T03:03:53;4.28;;;3.88;;
21472;SDS011;10898;48.072;11.682;2022-08-19T03:06:11;4.55;;;4.15;;
21472;SDS011;10898;48.072;11.682;2022-08-19T03:08:14;4.78;;;4.38;;
21472;SDS011;10898;48.072;11.682;2022-08-19T03:10:17;4.22;;;3.92;;
21472;SDS011;10898;48.072;11.682;2022-08-19T03:12:19;4.75;;;4.40;;
21472;SDS011;10898;48.072;11.682;2022-08-19T03:14:20;4.22;;;3.85;;
21472;SDS011;10898;48.072;11.682;2022-08-19T03:16:23;4.53;;;4.13;;
21472;SDS011;10898;48.072;11.682;2022-08-19T03:18:27;4.18;;;3.88;;
21472;SDS011;10898;48.072;11.682;2022-08-19T03:20:28;4.10;;;3.70;;
21472;SDS011;10898;48.072;11.682;2022-08-19T03:22:30;5.35;;;4.85;;
21472;SDS011;10898;48.072;11.682;2022-08-19T03:24:32;4.05;;;3.75;;
21472;SDS011;10898;48.072;11.682;2022-08-19T03:26:37;4.72;;;4.32;;
21472;SDS011;10898;48.072;11.682;2022-08-19T03:28:41;4.82;;;4.43;;
21472;SDS011;10898;48.072;11.682;2022-08-19T03:30:56;3.83;;;3.53;;
21472;SDS011;10898;48.072;11.682;2022-08-19T03:33:01;4.72;;;4.20;;
21472;SDS011;10898;48.072;11.682;2022-08-19T03:35:05;5.28;;;4.00;;
21472;SDS011;10898;48.072;11.682;2022-08-19T03:37:10;4.13;;;3.83;;
21472;SDS011;10898;48.072;11.682;2022-08-19T03:39:16;3.95;;;3.65;;
21472;SDS011;10898;48.072;11.682;2022-08-19T03:41:19;3.78;;;3.45;;
21472;SDS011;10898;48.072;11.682;2022-08-19T03:43:34;4.75;;;3.88;;
21472;SDS011;10898;48.072;11.682;2022-08-19T03:45:38;4.30;;;4.00;;
21472;SDS011;10898;48.072;11.682;2022-08-19T03:47:39;3.95;;;3.65;;
21472;SDS011;10898;48.072;11.682;2022-08-19T03:49:41;4.30;;;3.90;;
21472;SDS011;10898;48.072;11.682;2022-08-19T03:51:44;4.55;;;4.15;;
21472;SDS011;10898;48.072;11.682;2022-08-19T03:53:46;4.60;;;4.20;;
21472;SDS011;10898;48.072;11.682;2022-08-19T03:57:50;4.00;;;3.60;;
21472;SDS011;10898;48.072;11.682;2022-08-19T03:59:58;4.30;;;3.90;;
21472;SDS011;10898;48.072;11.682;2022-08-19T04:02:13;4.63;;;4.22;;
21472;SDS011;10898;48.072;11.682;2022-08-19T04:04:15;4.30;;;3.90;;
21472;SDS011;10898;48.072;11.682;2022-08-19T04:06:21;4.72;;;3.88;;
21472;SDS011;10898;48.072;11.682;2022-08-19T04:08:25;4.28;;;3.85;;
21472;SDS011;10898;48.072;11.682;2022-08-19T04:10:27;5.10;;;4.60;;
21472;SDS011;10898;48.072;11.682;2022-08-19T04:12:29;4.07;;;3.78;;
21472;SDS011;10898;48.072;11.682;2022-08-19T04:14:31;4.65;;;4.22;;
21472;SDS011;10898;48.072;11.682;2022-08-19T04:16:34;4.38;;;4.05;;
21472;SDS011;10898;48.072;11.682;2022-08-19T04:18:37;4.83;;;4.33;;
21472;SDS011;10898;48.072;11.682;2022-08-19T04:20:44;5.00;;;4.57;;
21472;SDS011;10898;48.072;11.682;2022-08-19T04:22:47;5.30;;;4.30;;
21472;SDS011;10898;48.072;11.682;2022-08-19T04:24:49;4.65;;;4.25;;
21472;SDS011;10898;48.072;11.682;2022-08-19T04:26:51;8.63;;;4.25;;
21472;SDS011;10898;48.072;11.682;2022-08-19T04:28:53;4.50;;;4.10;;
21472;SDS011;10898;48.072;11.682;2022-08-19T04:32:59;4.53;;;4.15;;
21472;SDS011;10898;48.072;11.682;2022-08-19T04:35:01;4.53;;;4.18;;
21472;SDS011;10898;48.072;11.682;2022-08-19T04:37:19;4.88;;;4.47;;
21472;SDS011;10898;48.072;11.682;2022-08-19T04:39:25;4.68;;;4.28;;
21472;SDS011;10898;48.072;11.682;2022-08-19T04:41:49;4.28;;;3.88;;
21472;SDS011;10898;48.072;11.682;2022-08-19T04:44:10;4.50;;;4.10;;
21472;SDS011;10898;48.072;11.682;2022-08-19T04:48:35;4.85;;;4.35;;
21472;SDS011;10898;48.072;11.682;2022-08-19T04:50:44;5.85;;;4.40;;
21472;SDS011;10898;48.072;11.682;2022-08-19T04:52:46;4.50;;;4.00;;
21472;SDS011;10898;48.072;11.682;2022-08-19T04:54:47;4.47;;;4.07;;
21472;SDS011;10898;48.072;11.682;2022-08-19T04:56:49;4.30;;;3.90;;
21472;SDS011;10898;48.072;11.682;2022-08-19T04:58:53;4.20;;;3.90;;
21472;SDS011;10898;48.072;11.682;2022-08-19T05:00:56;4.50;;;4.10;;
21472;SDS011;10898;48.072;11.682;2022-08-19T05:03:01;6.20;;;5.60;;
21472;SDS011;10898;48.072;11.682;2022-08-19T05:05:08;4.65;;;4.25;;
21472;SDS011;10898;48.072;11.682;2022-08-19T05:07:10;5.10;;;4.65;;
21472;SDS011;10898;48.072;11.682;2022-08-19T05:09:12;4.53;;;4.13;;
21472;SDS011;10898;48.072;11.682;2022-08-19T05:11:18;5.75;;;4.72;;
21472;SDS011;10898;48.072;11.682;2022-08-19T05:13:26;5.30;;;4.80;;
21472;SDS011;10898;48.072;11.682;2022-08-19T05:15:28;5.07;;;4.68;;
21472;SDS011;10898;48.072;11.682;2022-08-19T05:17:30;4.40;;;4.00;;
21472;SDS011;10898;48.072;11.682;2022-08-19T05:19:38;4.40;;;4.00;;
21472;SDS011;10898;48.072;11.682;2022-08-19T05:21:59;4.53;;;4.13;;
21472;SDS011;10898;48.072;11.682;2022-08-19T05:24:20;4.38;;;3.97;;
21472;SDS011;10898;48.072;11.682;2022-08-19T05:26:24;4.20;;;3.90;;
21472;SDS011;10898;48.072;11.682;2022-08-19T05:28:27;5.22;;;4.15;;
21472;SDS011;10898;48.072;11.682;2022-08-19T05:30:31;4.68;;;3.97;;
21472;SDS011;10898;48.072;11.682;2022-08-19T05:32:47;6.45;;;3.90;;
21472;SDS011;10898;48.072;11.682;2022-08-19T05:34:49;5.35;;;4.00;;
21472;SDS011;10898;48.072;11.682;2022-08-19T05:36:55;4.05;;;3.65;;
21472;SDS011;10898;48.072;11.682;2022-08-19T05:38:58;4.75;;;4.30;;
21472;SDS011;10898;48.072;11.682;2022-08-19T05:41:00;4.50;;;4.07;;
21472;SDS011;10898;48.072;11.682;2022-08-19T05:43:09;4.47;;;4.07;;
21472;SDS011;10898;48.072;11.682;2022-08-19T05:45:11;4.18;;;3.88;;
21472;SDS011;10898;48.072;11.682;2022-08-19T05:47:13;4.38;;;3.97;;
21472;SDS011;10898;48.072;11.682;2022-08-19T05:49:16;4.28;;;3.60;;
21472;SDS011;10898;48.072;11.682;2022-08-19T05:51:19;4.25;;;3.85;;
21472;SDS011;10898;48.072;11.682;2022-08-19T05:53:21;4.43;;;3.90;;
21472;SDS011;10898;48.072;11.682;2022-08-19T05:55:22;4.72;;;4.32;;
21472;SDS011;10898;48.072;11.682;2022-08-19T05:57:24;4.80;;;4.40;;
21472;SDS011;10898;48.072;11.682;2022-08-19T05:59:26;5.40;;;4.90;;
21472;SDS011;10898;48.072;11.682;2022-08-19T06:01:31;5.38;;;4.88;;
21472;SDS011;10898;48.072;11.682;2022-08-19T06:03:33;5.97;;;5.35;;
21472;SDS011;10898;48.072;11.682;2022-08-19T06:05:35;5.70;;;5.20;;
21472;SDS011;10898;48.072;11.682;2022-08-19T06:07:49;8.25;;;5.55;;
21472;SDS011;10898;48.072;11.682;2022-08-19T06:09:51;8.00;;;5.70;;
21472;SDS011;10898;48.072;11.682;2022-08-19T06:12:00;6.95;;;5.68;;
21472;SDS011;10898;48.072;11.682;2022-08-19T06:14:05;5.70;;;5.13;;
21472;SDS011;10898;48.072;11.682;2022-08-19T06:16:17;6.85;;;5.75;;
21472;SDS011;10898;48.072;11.682;2022-08-19T06:18:23;7.15;;;6.53;;
21472;SDS011;10898;48.072;11.682;2022-08-19T06:20:25;7.17;;;6.47;;
21472;SDS011;10898;48.072;11.682;2022-08-19T06:22:48;7.90;;;5.85;;
21472;SDS011;10898;48.072;11.682;2022-08-19T06:24:53;7.20;;;6.50;;
21472;SDS011;10898;48.072;11.682;2022-08-19T06:26:56;7.72;;;6.75;;
21472;SDS011;10898;48.072;11.682;2022-08-19T06:29:02;6.65;;;5.85;;
21472;SDS011;10898;48.072;11.682;2022-08-19T06:31:07;7.13;;;6.40;;
21472;SDS011;10898;48.072;11.682;2022-08-19T06:33:09;7.05;;;6.38;;
21472;SDS011;10898;48.072;11.682;2022-08-19T06:35:11;6.85;;;6.25;;
21472;SDS011;10898;48.072;11.682;2022-08-19T06:37:15;6.78;;;6.07;;
21472;SDS011;10898;48.072;11.682;2022-08-19T06:39:18;6.78;;;6.18;;
21472;SDS011;10898;48.072;11.682;2022-08-19T06:41:24;6.43;;;5.82;;
21472;SDS011;10898;48.072;11.682;2022-08-19T06:43:26;6.55;;;5.95;;
21472;SDS011;10898;48.072;11.682;2022-08-19T06:45:29;6.68;;;5.75;;
21472;SDS011;10898;48.072;11.682;2022-08-19T06:47:35;6.43;;;5.75;;
21472;SDS011;10898;48.072;11.682;2022-08-19T06:49:38;7.50;;;6.47;;
21472;SDS011;10898;48.072;11.682;2022-08-19T06:51:43;7.40;;;6.70;;
21472;SDS011;10898;48.072;11.682;2022-08-19T06:53:50;8.30;;;7.50;;
21472;SDS011;10898;48.072;11.682;2022-08-19T06:55:53;7.47;;;6.78;;
21472;SDS011;10898;48.072;11.682;2022-08-19T06:58:01;8.32;;;7.53;;
21472;SDS011;10898;48.072;11.682;2022-08-19T07:00:05;7.78;;;7.00;;
21472;SDS011;10898;48.072;11.682;2022-08-19T07:02:13;10.43;;;7.43;;
21472;SDS011;10898;48.072;11.682;2022-08-19T07:04:16;10.20;;;9.15;;
21472;SDS011;10898;48.072;11.682;2022-08-19T07:06:20;10.73;;;9.45;;
21472;SDS011;10898;48.072;11.682;2022-08-19T07:08:42;8.77;;;7.88;;
21472;SDS011;10898;48.072;11.682;2022-08-19T07:10:47;13.60;;;11.23;;
21472;SDS011;10898;48.072;11.682;2022-08-19T07:12:50;12.00;;;10.23;;
21472;SDS011;10898;48.072;11.682;2022-08-19T07:14:52;12.70;;;11.35;;
21472;SDS011;10898;48.072;11.682;2022-08-19T07:16:55;13.63;;;12.23;;
21472;SDS011;10898;48.072;11.682;2022-08-19T07:18:58;14.15;;;12.65;;
21472;SDS011;10898;48.072;11.682;2022-08-19T07:21:17;13.05;;;11.75;;
21472;SDS011;10898;48.072;11.682;2022-08-19T07:23:19;13.77;;;11.63;;
21472;SDS011;10898;48.072;11.682;2022-08-19T07:25:23;14.10;;;12.70;;
21472;SDS011;10898;48.072;11.682;2022-08-19T07:27:33;15.25;;;12.90;;
21472;SDS011;10898;48.072;11.682;2022-08-19T07:29:36;12.75;;;11.45;;
21472;SDS011;10898;48.072;11.682;2022-08-19T07:31:38;17.25;;;14.43;;
21472;SDS011;10898;48.072;11.682;2022-08-19T07:33:44;16.85;;;14.18;;
21472;SDS011;10898;48.072;11.682;2022-08-19T07:35:47;16.52;;;14.43;;
21472;SDS011;10898;48.072;11.682;2022-08-19T07:37:50;18.38;;;16.02;;
21472;SDS011;10898;48.072;11.682;2022-08-19T07:39:54;20.38;;;16.15;;
21472;SDS011;10898;48.072;11.682;2022-08-19T07:41:57;17.00;;;15.20;;
21472;SDS011;10898;48.072;11.682;2022-08-19T07:44:00;18.58;;;15.63;;
21472;SDS011;10898;48.072;11.682;2022-08-19T07:46:05;18.17;;;15.05;;
21472;SDS011;10898;48.072;11.682;2022-08-19T07:48:14;16.13;;;14.23;;
21472;SDS011;10898;48.072;11.682;2022-08-19T07:50:17;17.13;;;15.33;;
21472;SDS011;10898;48.072;11.682;2022-08-19T07:52:20;17.35;;;15.45;;
21472;SDS011;10898;48.072;11.682;2022-08-19T07:54:24;17.38;;;15.57;;
21472;SDS011;10898;48.072;11.682;2022-08-19T07:56:28;17.25;;;15.20;;
21472;SDS011;10898;48.072;11.682;2022-08-19T07:58:30;18.95;;;16.92;;
21472;SDS011;10898;48.072;11.682;2022-08-19T08:00:34;16.92;;;15.00;;
21472;SDS011;10898;48.072;11.682;2022-08-19T08:02:36;17.15;;;15.32;;
21472;SDS011;10898;48.072;11.682;2022-08-19T08:04:40;18.33;;;16.25;;
21472;SDS011;10898;48.072;11.682;2022-08-19T08:07:00;18.73;;;16.73;;
21472;SDS011;10898;48.072;11.682;2022-08-19T08:09:25;18.80;;;16.33;;
21472;SDS011;10898;48.072;11.682;2022-08-19T08:11:29;18.90;;;15.48;;
21472;SDS011;10898;48.072;11.682;2022-08-19T08:13:31;18.70;;;16.17;;
21472;SDS011;10898;48.072;11.682;2022-08-19T08:15:39;18.25;;;14.85;;
21472;SDS011;10898;48.072;11.682;2022-08-19T08:17:44;20.23;;;18.10;;
21472;SDS011;10898;48.072;11.682;2022-08-19T08:19:50;19.98;;;16.52;;
21472;SDS011;10898;48.072;11.682;2022-08-19T08:21:56;18.30;;;16.40;;
21472;SDS011;10898;48.072;11.682;2022-08-19T08:24:00;20.65;;;16.63;;
21472;SDS011;10898;48.072;11.682;2022-08-19T08:26:01;18.67;;;16.42;;
21472;SDS011;10898;48.072;11.682;2022-08-19T08:28:04;18.15;;;16.25;;
21472;SDS011;10898;48.072;11.682;2022-08-19T08:30:13;18.50;;;16.50;;
21472;SDS011;10898;48.072;11.682;2022-08-19T08:32:18;21.48;;;17.48;;
21472;SDS011;10898;48.072;11.682;2022-08-19T08:34:20;17.25;;;15.23;;
21472;SDS011;10898;48.072;11.682;2022-08-19T08:36:22;18.95;;;15.68;;
21472;SDS011;10898;48.072;11.682;2022-08-19T08:38:25;18.73;;;16.70;;
21472;SDS011;10898;48.072;11.682;2022-08-19T08:40:44;20.50;;;16.23;;
21472;SDS011;10898;48.072;11.682;2022-08-19T08:45:12;19.02;;;17.02;;
21472;SDS011;10898;48.072;11.682;2022-08-19T08:47:18;20.80;;;17.70;;
21472;SDS011;10898;48.072;11.682;2022-08-19T08:51:42;20.55;;;18.23;;
21472;SDS011;10898;48.072;11.682;2022-08-19T08:53:59;19.40;;;16.30;;
21472;SDS011;10898;48.072;11.682;2022-08-19T08:56:03;20.45;;;16.95;;
21472;SDS011;10898;48.072;11.682;2022-08-19T08:58:09;17.67;;;15.80;;
21472;SDS011;10898;48.072;11.682;2022-08-19T09:00:24;18.35;;;15.88;;
21472;SDS011;10898;48.072;11.682;2022-08-19T09:02:31;18.25;;;15.57;;
21472;SDS011;10898;48.072;11.682;2022-08-19T09:04:34;17.17;;;15.30;;
21472;SDS011;10898;48.072;11.682;2022-08-19T09:06:44;17.77;;;15.35;;
21472;SDS011;10898;48.072;11.682;2022-08-19T09:09:05;18.25;;;15.80;;
21472;SDS011;10898;48.072;11.682;2022-08-19T09:16:22;17.52;;;15.68;;
21472;SDS011;10898;48.072;11.682;2022-08-19T09:18:38;16.08;;;14.23;;
21472;SDS011;10898;48.072;11.682;2022-08-19T09:20:43;18.42;;;15.02;;
21472;SDS011;10898;48.072;11.682;2022-08-19T09:22:46;16.52;;;13.95;;
21472;SDS011;10898;48.072;11.682;2022-08-19T09:24:50;17.73;;;14.25;;
21472;SDS011;10898;48.072;11.682;2022-08-19T09:26:55;14.55;;;13.10;;
21472;SDS011;10898;48.072;11.682;2022-08-19T09:28:57;14.80;;;13.20;;
21472;SDS011;10898;48.072;11.682;2022-08-19T09:31:00;15.70;;;13.68;;
21472;SDS011;10898;48.072;11.682;2022-08-19T09:33:02;13.98;;;12.48;;
21472;SDS011;10898;48.072;11.682;2022-08-19T09:35:04;15.93;;;12.77;;
21472;SDS011;10898;48.072;11.682;2022-08-19T09:37:11;12.75;;;11.45;;
21472;SDS011;10898;48.072;11.682;2022-08-19T09:39:15;12.77;;;11.00;;
21472;SDS011;10898;48.072;11.682;2022-08-19T09:41:18;12.02;;;10.82;;
21472;SDS011;10898;48.072;11.682;2022-08-19T09:43:21;12.90;;;10.30;;
21472;SDS011;10898;48.072;11.682;2022-08-19T09:45:33;12.43;;;11.20;;
21472;SDS011;10898;48.072;11.682;2022-08-19T09:47:36;12.18;;;10.95;;
21472;SDS011;10898;48.072;11.682;2022-08-19T09:49:41;11.65;;;10.45;;
21472;SDS011;10898;48.072;11.682;2022-08-19T09:51:42;12.67;;;10.90;;
21472;SDS011;10898;48.072;11.682;2022-08-19T09:53:51;12.77;;;11.30;;
21472;SDS011;10898;48.072;11.682;2022-08-19T09:55:55;11.68;;;10.48;;
21472;SDS011;10898;48.072;11.682;2022-08-19T09:57:58;12.00;;;10.80;;
21472;SDS011;10898;48.072;11.682;2022-08-19T10:00:03;11.32;;;10.13;;
21472;SDS011;10898;48.072;11.682;2022-08-19T10:02:08;12.18;;;10.88;;
21472;SDS011;10898;48.072;11.682;2022-08-19T10:04:11;11.32;;;10.23;;
21472;SDS011;10898;48.072;11.682;2022-08-19T10:06:21;11.25;;;10.07;;
21472;SDS011;10898;48.072;11.682;2022-08-19T10:08:44;10.48;;;9.38;;
21472;SDS011;10898;48.072;11.682;2022-08-19T10:10:51;11.05;;;9.95;;
21472;SDS011;10898;48.072;11.682;2022-08-19T10:12:53;13.25;;;11.00;;
21472;SDS011;10898;48.072;11.682;2022-08-19T10:14:56;10.43;;;9.30;;
21472;SDS011;10898;48.072;11.682;2022-08-19T10:16:58;10.57;;;9.53;;
21472;SDS011;10898;48.072;11.682;2022-08-19T10:19:04;11.00;;;9.88;;
21472;SDS011;10898;48.072;11.682;2022-08-19T10:21:07;11.10;;;9.98;;
21472;SDS011;10898;48.072;11.682;2022-08-19T10:23:15;12.35;;;11.05;;
21472;SDS011;10898;48.072;11.682;2022-08-19T10:25:18;12.45;;;10.40;;
21472;SDS011;10898;48.072;11.682;2022-08-19T10:27:20;10.43;;;9.15;;
21472;SDS011;10898;48.072;11.682;2022-08-19T10:29:22;11.38;;;10.23;;
21472;SDS011;10898;48.072;11.682;2022-08-19T10:31:33;11.07;;;9.60;;
21472;SDS011;10898;48.072;11.682;2022-08-19T10:33:55;11.30;;;10.23;;
21472;SDS011;10898;48.072;11.682;2022-08-19T10:36:03;9.65;;;8.75;;
21472;SDS011;10898;48.072;11.682;2022-08-19T10:38:08;11.05;;;9.88;;
21472;SDS011;10898;48.072;11.682;2022-08-19T10:40:10;11.23;;;9.13;;
21472;SDS011;10898;48.072;11.682;2022-08-19T10:42:13;12.18;;;9.25;;
21472;SDS011;10898;48.072;11.682;2022-08-19T10:44:17;11.70;;;9.95;;
21472;SDS011;10898;48.072;11.682;2022-08-19T10:46:19;10.23;;;8.18;;
21472;SDS011;10898;48.072;11.682;2022-08-19T10:50:23;9.32;;;6.20;;
21472;SDS011;10898;48.072;11.682;2022-08-19T10:52:45;6.57;;;5.93;;
21472;SDS011;10898;48.072;11.682;2022-08-19T10:54:50;7.30;;;6.65;;
21472;SDS011;10898;48.072;11.682;2022-08-19T10:57:10;6.70;;;5.72;;
21472;SDS011;10898;48.072;11.682;2022-08-19T10:59:13;5.72;;;5.22;;
21472;SDS011;10898;48.072;11.682;2022-08-19T11:03:17;6.55;;;6.03;;
21472;SDS011;10898;48.072;11.682;2022-08-19T11:05:19;7.13;;;6.40;;
21472;SDS011;10898;48.072;11.682;2022-08-19T11:07:24;7.53;;;5.70;;
21472;SDS011;10898;48.072;11.682;2022-08-19T11:09:27;6.97;;;6.38;;
21472;SDS011;10898;48.072;11.682;2022-08-19T11:11:34;6.72;;;6.07;;
21472;SDS011;10898;48.072;11.682;2022-08-19T11:13:42;91.15;;;38.15;;
21472;SDS011;10898;48.072;11.682;2022-08-19T11:15:45;54.33;;;25.17;;
21472;SDS011;10898;48.072;11.682;2022-08-19T11:17:48;18.50;;;10.23;;
21472;SDS011;10898;48.072;11.682;2022-08-19T11:19:50;7.07;;;6.37;;
21472;SDS011;10898;48.072;11.682;2022-08-19T11:21:52;6.75;;;6.15;;
21472;SDS011;10898;48.072;11.682;2022-08-19T11:23:59;8.50;;;6.70;;
21472;SDS011;10898;48.072;11.682;2022-08-19T11:26:04;6.80;;;5.95;;
21472;SDS011;10898;48.072;11.682;2022-08-19T11:28:06;6.03;;;5.43;;
21472;SDS011;10898;48.072;11.682;2022-08-19T11:30:08;6.13;;;5.32;;
21472;SDS011;10898;48.072;11.682;2022-08-19T11:32:13;5.43;;;4.93;;
21472;SDS011;10898;48.072;11.682;2022-08-19T11:34:17;5.97;;;5.40;;
21472;SDS011;10898;48.072;11.682;2022-08-19T11:36:21;5.47;;;4.97;;
21472;SDS011;10898;48.072;11.682;2022-08-19T11:38:23;5.80;;;5.20;;
21472;SDS011;10898;48.072;11.682;2022-08-19T11:40:25;5.83;;;5.23;;
21472;SDS011;10898;48.072;11.682;2022-08-19T11:42:27;6.20;;;5.70;;
21472;SDS011;10898;48.072;11.682;2022-08-19T11:44:47;6.07;;;5.13;;
21472;SDS011;10898;48.072;11.682;2022-08-19T11:46:49;5.97;;;5.33;;
21472;SDS011;10898;48.072;11.682;2022-08-19T11:48:51;6.43;;;4.97;;
21472;SDS011;10898;48.072;11.682;2022-08-19T11:50:53;6.03;;;5.50;;
21472;SDS011;10898;48.072;11.682;2022-08-19T11:52:57;5.22;;;4.72;;
21472;SDS011;10898;48.072;11.682;2022-08-19T11:55:00;5.97;;;5.47;;
21472;SDS011;10898;48.072;11.682;2022-08-19T11:57:02;5.27;;;4.77;;
21472;SDS011;10898;48.072;11.682;2022-08-19T11:59:05;5.25;;;4.75;;
21472;SDS011;10898;48.072;11.682;2022-08-19T12:01:09;5.22;;;4.82;;
21472;SDS011;10898;48.072;11.682;2022-08-19T12:03:17;4.30;;;3.90;;
21472;SDS011;10898;48.072;11.682;2022-08-19T12:05:20;5.80;;;5.30;;
21472;SDS011;10898;48.072;11.682;2022-08-19T12:07:22;5.45;;;4.90;;
21472;SDS011;10898;48.072;11.682;2022-08-19T12:09:24;6.30;;;5.70;;
21472;SDS011;10898;48.072;11.682;2022-08-19T12:11:31;7.35;;;6.65;;
21472;SDS011;10898;48.072;11.682;2022-08-19T12:13:35;9.55;;;8.45;;
21472;SDS011;10898;48.072;11.682;2022-08-19T12:15:38;8.45;;;7.60;;
21472;SDS011;10898;48.072;11.682;2022-08-19T12:17:46;8.40;;;7.50;;
21472;SDS011;10898;48.072;11.682;2022-08-19T12:19:48;7.27;;;6.57;;
21472;SDS011;10898;48.072;11.682;2022-08-19T12:21:50;6.32;;;5.72;;
21472;SDS011;10898;48.072;11.682;2022-08-19T12:23:54;8.00;;;7.00;;
21472;SDS011;10898;48.072;11.682;2022-08-19T12:25:58;6.75;;;6.15;;
21472;SDS011;10898;48.072;11.682;2022-08-19T12:28:00;7.35;;;5.47;;
21472;SDS011;10898;48.072;11.682;2022-08-19T12:30:03;5.78;;;5.22;;
21472;SDS011;10898;48.072;11.682;2022-08-19T12:32:07;6.95;;;5.28;;
21472;SDS011;10898;48.072;11.682;2022-08-19T12:34:12;6.30;;;5.70;;
21472;SDS011;10898;48.072;11.682;2022-08-19T12:36:14;5.17;;;4.67;;
21472;SDS011;10898;48.072;11.682;2022-08-19T12:38:17;4.82;;;4.43;;
21472;SDS011;10898;48.072;11.682;2022-08-19T12:40:19;4.53;;;3.60;;
21472;SDS011;10898;48.072;11.682;2022-08-19T12:42:21;3.15;;;2.85;;